createdAt,value
2023-04-16T00:03:35.886Z,97758.78
2023-04-16T00:06:03.602Z,97760.53
2023-04-16T00:08:30.638Z,97767.97
2023-04-16T00:10:57.838Z,97765.56
2023-04-16T00:13:27.114Z,97761.59
2023-04-16T00:15:54.010Z,97756.91
2023-04-16T00:18:21.663Z,97762.72
2023-04-16T00:20:49.282Z,97765.00
2023-04-16T00:23:16.452Z,97768.91
2023-04-16T00:25:43.768Z,97760.63
2023-04-16T00:28:11.141Z,97758.09
2023-04-16T00:30:38.500Z,97764.47
2023-04-16T00:33:05.593Z,97767.81
2023-04-16T00:35:32.612Z,97764.44
2023-04-16T00:37:59.547Z,97763.00
2023-04-16T00:40:29.422Z,97774.16
2023-04-16T00:42:56.455Z,97769.22
2023-04-16T00:45:23.934Z,97759.94
2023-04-16T00:47:50.807Z,97768.47
2023-04-16T00:50:18.269Z,97766.88
2023-04-16T00:52:47.485Z,97759.50
2023-04-16T00:55:15.807Z,97766.94
2023-04-16T00:57:42.899Z,97760.41
2023-04-16T01:00:10.518Z,97756.94
2023-04-16T01:02:37.827Z,97759.53
2023-04-16T01:05:05.758Z,97750.78
2023-04-16T01:07:32.973Z,97755.97
2023-04-16T01:09:59.874Z,97762.94
2023-04-16T01:12:26.832Z,97755.09
2023-04-16T01:14:54.140Z,97764.22
2023-04-16T01:17:20.952Z,97768.97
2023-04-16T01:19:48.104Z,97769.81
2023-04-16T01:22:15.028Z,97771.06
2023-04-16T01:24:42.028Z,97777.66
2023-04-16T01:27:10.994Z,97773.50
2023-04-16T01:29:37.994Z,97778.53
2023-04-16T01:32:06.194Z,97784.94
2023-04-16T01:34:38.008Z,97780.97
2023-04-16T01:37:05.673Z,97783.81
2023-04-16T01:39:32.735Z,97786.22
2023-04-16T01:41:59.791Z,97788.84
2023-04-16T01:44:28.254Z,97781.56
2023-04-16T01:46:55.505Z,97790.41
2023-04-16T01:49:24.280Z,97794.59
2023-04-16T01:51:51.779Z,97790.88
2023-04-16T01:54:18.647Z,97793.97
2023-04-16T01:56:45.610Z,97786.97
2023-04-16T01:59:12.865Z,97782.44
2023-04-16T02:01:42.841Z,97783.56
2023-04-16T02:04:11.139Z,97782.72
2023-04-16T02:06:38.328Z,97784.13
2023-04-16T02:09:05.738Z,97799.97
2023-04-16T02:11:33.019Z,97787.22
2023-04-16T02:14:00.446Z,97794.19
2023-04-16T02:16:27.814Z,97785.94
2023-04-16T02:19:00.520Z,97796.16
2023-04-16T02:21:32.857Z,97800.31
2023-04-16T02:24:00.377Z,97799.53
2023-04-16T02:26:30.685Z,97800.97
2023-04-16T02:29:03.749Z,97796.31
2023-04-16T02:31:38.691Z,97805.59
2023-04-16T02:34:07.283Z,97808.28
2023-04-16T02:36:34.454Z,97812.00
2023-04-16T02:39:01.849Z,97805.38
2023-04-16T02:41:28.910Z,97816.47
2023-04-16T02:43:56.626Z,97811.72
2023-04-16T02:46:24.063Z,97822.19
2023-04-16T02:48:51.247Z,97809.97
2023-04-16T02:51:18.304Z,97812.63
2023-04-16T02:53:46.192Z,97810.03
2023-04-16T02:56:14.428Z,97811.47
2023-04-16T02:58:41.459Z,97816.31
2023-04-16T03:01:08.436Z,97823.00
2023-04-16T03:03:35.744Z,97824.91
2023-04-16T03:06:02.969Z,97813.75
2023-04-16T03:08:29.837Z,97819.03
2023-04-16T03:10:58.104Z,97816.50
2023-04-16T03:13:25.395Z,97820.69
2023-04-16T03:15:52.396Z,97812.66
2023-04-16T03:18:19.780Z,97815.22
2023-04-16T03:20:53.224Z,97816.53
2023-04-16T03:23:20.731Z,97831.28
2023-04-16T03:25:48.236Z,97832.06
2023-04-16T03:28:18.788Z,97841.31
2023-04-16T03:30:53.224Z,97836.16
2023-04-16T03:33:21.132Z,97826.28
2023-04-16T03:35:58.396Z,97832.72
2023-04-16T03:38:28.922Z,97831.19
2023-04-16T03:40:57.883Z,97827.16
2023-04-16T03:43:25.732Z,97829.84
2023-04-16T03:45:52.949Z,97830.09
2023-04-16T03:48:23.390Z,97830.56
2023-04-16T03:50:50.932Z,97836.34
2023-04-16T03:53:20.707Z,97843.59
2023-04-16T03:55:52.102Z,97840.16
2023-04-16T03:58:20.436Z,97845.59
2023-04-16T04:00:48.173Z,97863.53
2023-04-16T04:03:20.219Z,97856.81
2023-04-16T04:05:50.116Z,97862.16
2023-04-16T04:08:24.376Z,97867.56
2023-04-16T04:10:52.201Z,97867.75
2023-04-16T04:13:21.432Z,97866.97
2023-04-16T04:15:49.973Z,97871.81
2023-04-16T04:18:17.838Z,97869.66
2023-04-16T04:20:45.456Z,97882.88
2023-04-16T04:23:15.825Z,97886.13
2023-04-16T04:25:46.223Z,97886.84
2023-04-16T04:28:14.229Z,97884.56
2023-04-16T04:30:42.214Z,97891.06
2023-04-16T04:33:09.787Z,97897.31
2023-04-16T04:35:38.847Z,97894.53
2023-04-16T04:38:06.067Z,97897.53
2023-04-16T04:40:33.903Z,97892.72
2023-04-16T04:43:01.556Z,97899.72
2023-04-16T04:45:31.688Z,97900.66
2023-04-16T04:47:59.490Z,97909.91
2023-04-16T04:50:27.124Z,97908.47
2023-04-16T04:52:54.537Z,97916.53
2023-04-16T04:55:23.852Z,97922.66
2023-04-16T04:57:51.615Z,97924.72
2023-04-16T05:00:20.053Z,97925.56
2023-04-16T05:02:53.277Z,97932.47
2023-04-16T05:05:21.057Z,97927.50
2023-04-16T05:07:49.181Z,97940.88
2023-04-16T05:10:16.526Z,97941.44
2023-04-16T05:12:43.690Z,97942.47
2023-04-16T05:15:11.181Z,97937.13
2023-04-16T05:17:38.398Z,97944.00
2023-04-16T05:20:05.692Z,97953.41
2023-04-16T05:22:33.116Z,97956.59
2023-04-16T05:25:00.402Z,97962.31
2023-04-16T05:27:27.366Z,97964.41
2023-04-16T05:29:54.973Z,97965.75
2023-04-16T05:32:23.392Z,97973.19
2023-04-16T05:34:51.084Z,97974.06
2023-04-16T05:37:18.426Z,97981.34
2023-04-16T05:39:45.977Z,97978.72
2023-04-16T05:42:12.991Z,97982.13
2023-04-16T05:44:40.838Z,97981.84
2023-04-16T05:47:09.572Z,97978.59
2023-04-16T05:49:39.912Z,97988.78
2023-04-16T05:52:07.552Z,97985.97
2023-04-16T05:54:34.571Z,97980.19
2023-04-16T05:57:02.597Z,97984.63
2023-04-16T05:59:30.966Z,97984.78
2023-04-16T06:01:58.296Z,97985.81
2023-04-16T06:04:26.006Z,97989.06
2023-04-16T06:06:53.295Z,97988.38
2023-04-16T06:09:20.100Z,97984.75
2023-04-16T06:11:47.244Z,97991.50
2023-04-16T06:14:14.137Z,97996.19
2023-04-16T06:16:41.370Z,97997.50
2023-04-16T06:19:09.081Z,97989.69
2023-04-16T06:21:37.991Z,97994.59
2023-04-16T06:24:05.200Z,97999.56
2023-04-16T06:26:33.318Z,98000.53
2023-04-16T06:29:01.841Z,98005.06
2023-04-16T06:31:30.196Z,98003.41
2023-04-16T06:33:57.332Z,97997.75
2023-04-16T06:36:24.698Z,97996.19
2023-04-16T06:38:51.876Z,97990.25
2023-04-16T06:41:19.179Z,97996.44
2023-04-16T06:43:46.446Z,98004.75
2023-04-16T06:46:13.383Z,97999.84
2023-04-16T06:48:41.260Z,97995.25
2023-04-16T06:51:08.775Z,97997.25
2023-04-16T06:53:37.662Z,97997.91
2023-04-16T06:56:07.076Z,98004.44
2023-04-16T06:58:34.570Z,97998.00
2023-04-16T07:01:02.759Z,98000.41
2023-04-16T07:03:30.080Z,98011.59
2023-04-16T07:05:57.884Z,98012.56
2023-04-16T07:08:25.205Z,98002.66
2023-04-16T07:10:54.360Z,98004.22
2023-04-16T07:13:22.174Z,97999.28
2023-04-16T07:15:49.367Z,98005.34
2023-04-16T07:18:16.892Z,98007.88
2023-04-16T07:20:44.285Z,98011.81
2023-04-16T07:23:11.392Z,98017.41
2023-04-16T07:25:39.330Z,98026.50
2023-04-16T07:28:06.734Z,98025.13
2023-04-16T07:30:36.922Z,98028.06
2023-04-16T07:33:04.434Z,98030.41
2023-04-16T07:35:32.206Z,98038.44
2023-04-16T07:37:59.420Z,98038.44
2023-04-16T07:40:27.988Z,98031.34
2023-04-16T07:42:55.833Z,98037.91
2023-04-16T07:45:24.592Z,98042.69
2023-04-16T07:47:51.759Z,98031.44
2023-04-16T07:50:19.685Z,98039.59
2023-04-16T07:52:47.705Z,98053.78
2023-04-16T07:55:15.523Z,98051.66
2023-04-16T07:57:42.662Z,98052.34
2023-04-16T08:00:12.449Z,98044.56
2023-04-16T08:02:44.602Z,98055.28
2023-04-16T08:05:13.597Z,98056.72
2023-04-16T08:07:40.981Z,98054.47
2023-04-16T08:10:09.118Z,98054.22
2023-04-16T08:12:36.755Z,98060.13
2023-04-16T08:15:05.917Z,98056.09
2023-04-16T08:17:34.673Z,98060.22
2023-04-16T08:20:02.403Z,98064.31
2023-04-16T08:22:30.237Z,98064.69
2023-04-16T08:24:57.935Z,98068.59
2023-04-16T08:27:25.097Z,98064.81
2023-04-16T08:29:52.090Z,98065.91
2023-04-16T08:32:19.281Z,98072.53
2023-04-16T08:34:47.358Z,98076.69
2023-04-16T08:37:14.674Z,98079.50
2023-04-16T08:39:41.862Z,98077.84
2023-04-16T08:42:29.403Z,98073.84
2023-04-16T08:45:18.348Z,98078.66
2023-04-16T08:47:50.712Z,98077.63
2023-04-16T08:50:23.526Z,98084.91
2023-04-16T08:53:01.152Z,98090.75
2023-04-16T08:55:36.530Z,98085.00
2023-04-16T08:58:11.244Z,98094.34
2023-04-16T09:00:41.393Z,98089.41
2023-04-16T09:03:10.627Z,98095.50
2023-04-16T09:05:38.909Z,98086.09
2023-04-16T09:08:07.147Z,98101.25
2023-04-16T09:10:35.766Z,98103.59
2023-04-16T09:13:03.132Z,98093.16
2023-04-16T09:15:31.481Z,98102.84
2023-04-16T09:17:59.724Z,98104.44
2023-04-16T09:20:26.751Z,98099.78
2023-04-16T09:22:53.957Z,98100.50
2023-04-16T09:25:22.674Z,98103.69
2023-04-16T09:27:51.403Z,98110.69
2023-04-16T09:30:23.265Z,98108.06
2023-04-16T09:32:52.974Z,98107.63
2023-04-16T09:35:20.993Z,98100.56
2023-04-16T09:37:58.825Z,98092.75
2023-04-16T09:40:28.320Z,98103.34
2023-04-16T09:43:00.967Z,98091.84
2023-04-16T09:45:34.096Z,98112.34
2023-04-16T09:48:06.166Z,98099.69
2023-04-16T09:50:33.251Z,98104.38
2023-04-16T09:53:03.843Z,98108.09
2023-04-16T09:55:31.260Z,98105.53
2023-04-16T09:58:02.316Z,98106.19
2023-04-16T10:00:32.170Z,98108.41
2023-04-16T10:03:32.311Z,98112.28
2023-04-16T10:06:17.828Z,98106.13
2023-04-16T10:08:50.414Z,98094.16
2023-04-16T10:11:20.392Z,98103.88
2023-04-16T10:13:47.854Z,98103.34
2023-04-16T10:16:15.229Z,98102.84
2023-04-16T10:18:44.498Z,98110.38
2023-04-16T10:21:12.856Z,98109.88
2023-04-16T10:23:41.184Z,98114.25
2023-04-16T10:26:08.892Z,98112.69
2023-04-16T10:28:36.638Z,98107.19
2023-04-16T10:31:08.806Z,98116.94
2023-04-16T10:33:39.665Z,98104.28
2023-04-16T10:36:15.265Z,98114.53
2023-04-16T10:38:49.670Z,98104.84
2023-04-16T10:41:16.882Z,98108.19
2023-04-16T10:43:46.666Z,98111.25
2023-04-16T10:46:24.553Z,98106.09
2023-04-16T10:48:56.194Z,98112.16
2023-04-16T10:51:42.453Z,98107.13
2023-04-16T10:54:11.425Z,98113.50
2023-04-16T10:56:39.362Z,98111.00
2023-04-16T10:59:10.337Z,98102.25
2023-04-16T11:01:43.306Z,98099.81
2023-04-16T11:04:20.094Z,98102.88
2023-04-16T11:07:06.084Z,98110.78
2023-04-16T11:10:05.191Z,98110.97
2023-04-16T11:12:42.926Z,98111.09
2023-04-16T11:15:22.379Z,98102.34
2023-04-16T11:17:52.739Z,98105.59
2023-04-16T11:20:23.504Z,98102.81
2023-04-16T11:22:53.673Z,98104.91
2023-04-16T11:25:39.643Z,98104.91
2023-04-16T11:28:06.945Z,98093.50
2023-04-16T11:30:39.339Z,98112.25
2023-04-16T11:33:09.048Z,98107.97
2023-04-16T11:35:37.606Z,98112.00
2023-04-16T11:38:06.448Z,98112.06
2023-04-16T11:40:34.443Z,98108.06
2023-04-16T11:43:17.449Z,98108.50
2023-04-16T11:46:07.512Z,98113.75
2023-04-16T11:48:51.293Z,98115.38
2023-04-16T11:51:20.136Z,98108.97
2023-04-16T11:53:50.209Z,98106.16
2023-04-16T11:56:28.819Z,98094.88
2023-04-16T11:59:13.773Z,98109.56
2023-04-16T12:01:45.821Z,98096.88
2023-04-16T12:04:18.800Z,98109.81
2023-04-16T12:07:05.295Z,98114.34
2023-04-16T12:09:37.165Z,98099.13
2023-04-16T12:12:07.322Z,98106.91
2023-04-16T12:14:34.876Z,98112.88
2023-04-16T12:17:19.800Z,98107.56
2023-04-16T12:19:57.548Z,98104.97
2023-04-16T12:22:36.974Z,98109.78
2023-04-16T12:25:07.015Z,98107.09
2023-04-16T12:27:52.782Z,98105.31
2023-04-16T12:30:22.966Z,98105.16
2023-04-16T12:32:52.778Z,98103.72
2023-04-16T12:35:34.756Z,98097.72
2023-04-16T12:38:03.757Z,98100.22
2023-04-16T12:40:36.508Z,98107.50
2023-04-16T12:43:13.381Z,98107.03
2023-04-16T12:45:41.259Z,98105.59
2023-04-16T12:48:08.792Z,98117.00
2023-04-16T12:50:36.681Z,98118.75
2023-04-16T12:53:04.480Z,98106.66
2023-04-16T12:55:31.732Z,98113.16
2023-04-16T12:57:59.483Z,98103.75
2023-04-16T13:00:27.286Z,98101.78
2023-04-16T13:02:55.175Z,98105.06
2023-04-16T13:05:22.938Z,98100.25
2023-04-16T13:07:50.434Z,98099.91
2023-04-16T13:10:17.836Z,98106.19
2023-04-16T13:12:46.731Z,98096.69
2023-04-16T13:15:13.948Z,98100.53
2023-04-16T13:17:41.162Z,98097.66
2023-04-16T13:20:09.558Z,98101.38
2023-04-16T13:22:39.739Z,98102.47
2023-04-16T13:25:07.824Z,98099.09
2023-04-16T13:27:35.219Z,98090.06
2023-04-16T13:30:02.232Z,98093.66
2023-04-16T13:32:29.515Z,98092.47
2023-04-16T13:34:56.709Z,98095.78
2023-04-16T13:37:24.444Z,98101.13
2023-04-16T13:39:51.359Z,98092.25
2023-04-16T13:42:18.513Z,98093.84
2023-04-16T13:44:49.134Z,98086.22
2023-04-16T13:47:17.248Z,98086.63
2023-04-16T13:49:45.982Z,98092.84
2023-04-16T13:52:13.276Z,98089.19
2023-04-16T13:54:41.720Z,98081.50
2023-04-16T13:57:19.889Z,98087.97
2023-04-16T13:59:47.672Z,98081.88
2023-04-16T14:02:19.158Z,98077.06
2023-04-16T14:04:47.351Z,98080.63
2023-04-16T14:07:15.517Z,98077.31
2023-04-16T14:09:46.288Z,98069.63
2023-04-16T14:12:13.321Z,98046.97
2023-04-16T14:14:41.958Z,98072.47
2023-04-16T14:17:09.161Z,98075.28
2023-04-16T14:19:36.585Z,98079.97
2023-04-16T14:22:03.970Z,98077.09
2023-04-16T14:24:31.128Z,98076.09
2023-04-16T14:26:59.165Z,98076.56
2023-04-16T14:29:26.868Z,98075.09
2023-04-16T14:31:55.092Z,98072.59
2023-04-16T14:34:22.935Z,98069.81
2023-04-16T14:36:52.803Z,98073.81
2023-04-16T14:39:21.760Z,98063.22
2023-04-16T14:41:48.774Z,98075.06
2023-04-16T14:44:15.994Z,98085.50
2023-04-16T14:46:46.858Z,98079.22
2023-04-16T14:49:14.639Z,98081.41
2023-04-16T14:51:42.639Z,98076.00
2023-04-16T14:54:09.836Z,98076.00
2023-04-16T14:56:36.749Z,98085.16
2023-04-16T14:59:04.827Z,98088.88
2023-04-16T15:01:33.692Z,98091.72
2023-04-16T15:04:03.147Z,98085.31
2023-04-16T15:06:30.551Z,98086.69
2023-04-16T15:09:00.553Z,98088.06
2023-04-16T15:11:28.775Z,98084.50
2023-04-16T15:13:56.323Z,98087.25
2023-04-16T15:16:24.163Z,98086.06
2023-04-16T15:18:51.650Z,98086.81
2023-04-16T15:21:19.069Z,98089.22
2023-04-16T15:23:46.067Z,98098.03
2023-04-16T15:26:13.157Z,98092.00
2023-04-16T15:28:40.795Z,98088.25
2023-04-16T15:31:09.002Z,98089.84
2023-04-16T15:33:36.251Z,98096.25
2023-04-16T15:36:04.260Z,98094.72
2023-04-16T15:38:31.821Z,98090.19
2023-04-16T15:41:00.842Z,98093.59
2023-04-16T15:43:29.805Z,98095.19
2023-04-16T15:45:57.543Z,98097.03
2023-04-16T15:48:25.348Z,98098.66
2023-04-16T15:50:53.433Z,98104.34
2023-04-16T15:53:21.808Z,98108.81
2023-04-16T15:55:52.696Z,98104.91
2023-04-16T15:58:21.075Z,98110.31
2023-04-16T16:00:50.340Z,98113.66
2023-04-16T16:03:18.634Z,98107.50
2023-04-16T16:05:48.231Z,98111.41
2023-04-16T16:08:15.964Z,98115.84
2023-04-16T16:10:43.370Z,98109.69
2023-04-16T16:13:13.296Z,98115.16
2023-04-16T16:15:44.171Z,98115.22
2023-04-16T16:18:11.194Z,98113.03
2023-04-16T16:20:39.071Z,98116.00
2023-04-16T16:23:08.962Z,98113.88
2023-04-16T16:25:38.576Z,98117.69
2023-04-16T16:28:06.800Z,98110.38
2023-04-16T16:30:33.835Z,98112.59
2023-04-16T16:33:01.614Z,98118.72
2023-04-16T16:35:29.394Z,98121.41
2023-04-16T16:37:57.399Z,98124.78
2023-04-16T16:40:25.238Z,98129.91
2023-04-16T16:42:53.315Z,98132.97
2023-04-16T16:45:21.003Z,98129.00
2023-04-16T16:47:48.962Z,98135.81
2023-04-16T16:50:16.941Z,98138.44
2023-04-16T16:52:44.846Z,98136.59
2023-04-16T16:55:12.116Z,98139.50
2023-04-16T16:57:39.709Z,98145.72
2023-04-16T17:00:16.766Z,98148.03
2023-04-16T17:02:44.403Z,98139.72
2023-04-16T17:05:12.555Z,98150.16
2023-04-16T17:07:40.546Z,98141.66
2023-04-16T17:10:11.553Z,98145.84
2023-04-16T17:12:38.829Z,98155.09
2023-04-16T17:15:06.078Z,98152.94
2023-04-16T17:17:33.253Z,98158.06
2023-04-16T17:20:01.564Z,98163.06
2023-04-16T17:22:28.637Z,98164.09
2023-04-16T17:24:58.266Z,98165.97
2023-04-16T17:27:26.892Z,98171.22
2023-04-16T17:30:00.232Z,98177.56
2023-04-16T17:32:32.526Z,98179.63
2023-04-16T17:35:00.236Z,98187.56
2023-04-16T17:37:27.628Z,98185.50
2023-04-16T17:39:55.570Z,98187.41
2023-04-16T17:42:23.137Z,98192.22
2023-04-16T17:44:50.413Z,98201.69
2023-04-16T17:47:17.564Z,98210.72
2023-04-16T17:49:45.585Z,98201.25
2023-04-16T17:52:13.040Z,98193.88
2023-04-16T17:54:40.365Z,98199.06
2023-04-16T17:57:07.453Z,98210.28
2023-04-16T17:59:34.691Z,98215.16
2023-04-16T18:02:01.961Z,98217.16
2023-04-16T18:04:29.284Z,98227.75
2023-04-16T18:06:56.817Z,98229.69
2023-04-16T18:09:24.444Z,98235.50
2023-04-16T18:11:51.272Z,98229.00
2023-04-16T18:14:20.232Z,98232.13
2023-04-16T18:16:48.246Z,98238.84
2023-04-16T18:19:18.811Z,98242.66
2023-04-16T18:21:46.702Z,98246.53
2023-04-16T18:24:14.023Z,98250.91
2023-04-16T18:26:41.972Z,98251.81
2023-04-16T18:29:09.327Z,98253.50
2023-04-16T18:31:36.710Z,98266.56
2023-04-16T18:34:06.508Z,98258.16
2023-04-16T18:36:34.041Z,98266.00
2023-04-16T18:39:02.676Z,98260.06
2023-04-16T18:41:31.329Z,98261.59
2023-04-16T18:43:59.182Z,98269.13
2023-04-16T18:46:27.530Z,98267.75
2023-04-16T18:48:55.116Z,98276.75
2023-04-16T18:51:22.005Z,98280.09
2023-04-16T18:53:49.230Z,98281.69
2023-04-16T18:56:16.775Z,98279.31
2023-04-16T18:58:44.240Z,98284.94
2023-04-16T19:01:13.544Z,98291.44
2023-04-16T19:03:50.827Z,98292.34
2023-04-16T19:06:17.979Z,98289.16
2023-04-16T19:08:45.251Z,98307.53
2023-04-16T19:11:12.353Z,98303.59
2023-04-16T19:13:40.101Z,98308.34
2023-04-16T19:16:11.710Z,98306.84
2023-04-16T19:18:39.547Z,98306.56
2023-04-16T19:21:07.288Z,98304.88
2023-04-16T19:23:34.426Z,98307.97
2023-04-16T19:26:01.731Z,98313.28
2023-04-16T19:28:29.259Z,98309.78
2023-04-16T19:30:56.662Z,98309.19
2023-04-16T19:33:24.025Z,98306.81
2023-04-16T19:35:51.128Z,98312.84
2023-04-16T19:38:18.308Z,98311.44
2023-04-16T19:40:46.854Z,98316.09
2023-04-16T19:43:14.851Z,98315.63
2023-04-16T19:45:46.967Z,98316.09
2023-04-16T19:48:14.959Z,98312.53
2023-04-16T19:50:42.937Z,98322.06
2023-04-16T19:53:11.335Z,98319.41
2023-04-16T19:55:42.409Z,98312.38
2023-04-16T19:58:10.031Z,98321.78
2023-04-16T20:00:38.778Z,98324.16
2023-04-16T20:03:06.463Z,98330.88
2023-04-16T20:05:34.023Z,98331.72
2023-04-16T20:08:01.525Z,98330.28
2023-04-16T20:10:31.966Z,98329.00
2023-04-16T20:13:00.000Z,98330.38
2023-04-16T20:15:27.411Z,98336.00
2023-04-16T20:17:56.296Z,98340.16
2023-04-16T20:20:24.002Z,98342.03
2023-04-16T20:22:51.278Z,98340.81
2023-04-16T20:25:21.848Z,98344.97
2023-04-16T20:27:49.001Z,98348.28
2023-04-16T20:30:16.561Z,98345.09
2023-04-16T20:32:45.332Z,98347.81
2023-04-16T20:35:13.102Z,98347.94
2023-04-16T20:37:43.089Z,98341.53
2023-04-16T20:40:11.046Z,98351.44
2023-04-16T20:42:38.282Z,98345.22
2023-04-16T20:45:09.259Z,98342.22
2023-04-16T20:47:36.605Z,98344.13
2023-04-16T20:50:03.821Z,98347.41
2023-04-16T20:52:31.076Z,98351.31
2023-04-16T20:54:58.362Z,98350.28
2023-04-16T20:57:28.090Z,98348.44
2023-04-16T20:59:55.333Z,98346.63
2023-04-16T21:02:24.299Z,98348.13
2023-04-16T21:04:52.599Z,98342.63
2023-04-16T21:07:19.912Z,98343.63
2023-04-16T21:09:46.859Z,98347.63
2023-04-16T21:12:13.999Z,98347.56
2023-04-16T21:14:41.003Z,98355.44
2023-04-16T21:17:08.050Z,98350.97
2023-04-16T21:19:35.097Z,98345.09
2023-04-16T21:22:02.926Z,98350.63
2023-04-16T21:24:31.936Z,98350.75
2023-04-16T21:26:58.876Z,98349.56
2023-04-16T21:29:26.295Z,98348.97
2023-04-16T21:31:53.816Z,98347.19
2023-04-16T21:34:20.835Z,98353.44
2023-04-16T21:36:47.642Z,98350.41
2023-04-16T21:39:17.496Z,98345.72
2023-04-16T21:41:44.347Z,98346.69
2023-04-16T21:44:11.475Z,98360.91
2023-04-16T21:46:38.265Z,98348.97
2023-04-16T21:49:05.955Z,98343.63
2023-04-16T21:51:32.868Z,98353.75
2023-04-16T21:54:00.001Z,98347.84
2023-04-16T21:56:27.555Z,98342.38
2023-04-16T21:58:54.595Z,98349.38
2023-04-16T22:01:22.124Z,98344.28
2023-04-16T22:03:52.314Z,98341.81
2023-04-16T22:06:20.723Z,98344.03
2023-04-16T22:08:50.036Z,98346.56
2023-04-16T22:11:19.117Z,98347.47
2023-04-16T22:13:47.873Z,98349.75
2023-04-16T22:16:15.641Z,98345.72
2023-04-16T22:18:43.898Z,98343.69
2023-04-16T22:21:11.523Z,98344.69
2023-04-16T22:23:38.619Z,98337.69
2023-04-16T22:26:05.522Z,98333.44
2023-04-16T22:28:32.670Z,98332.25
2023-04-16T22:31:00.037Z,98335.63
2023-04-16T22:33:29.710Z,98340.00
2023-04-16T22:35:56.793Z,98346.53
2023-04-16T22:38:23.856Z,98340.03
2023-04-16T22:40:50.916Z,98345.25
2023-04-16T22:43:20.991Z,98332.81
2023-04-16T22:45:48.126Z,98345.00
2023-04-16T22:48:15.786Z,98335.22
2023-04-16T22:50:48.785Z,98338.94
2023-04-16T22:53:16.014Z,98346.44
2023-04-16T22:55:42.970Z,98341.44
2023-04-16T22:58:10.007Z,98331.84
2023-04-16T23:00:37.195Z,98339.13
2023-04-16T23:03:04.582Z,98344.47
2023-04-16T23:05:31.625Z,98336.75
2023-04-16T23:07:58.562Z,98342.03
2023-04-16T23:10:26.123Z,98331.22
2023-04-16T23:12:52.932Z,98325.19
2023-04-16T23:15:20.270Z,98322.66
2023-04-16T23:17:47.299Z,98328.47
2023-04-16T23:20:14.341Z,98326.78
2023-04-16T23:22:41.508Z,98332.66
2023-04-16T23:25:09.184Z,98326.59
2023-04-16T23:27:37.332Z,98337.97
2023-04-16T23:30:06.025Z,98333.75
2023-04-16T23:32:34.288Z,98328.72
2023-04-16T23:35:01.408Z,98334.31
2023-04-16T23:37:28.591Z,98332.81
2023-04-16T23:39:57.698Z,98327.69
2023-04-16T23:42:25.109Z,98327.06
2023-04-16T23:44:52.129Z,98327.56
2023-04-16T23:47:19.462Z,98327.06
2023-04-16T23:49:46.511Z,98331.59
2023-04-16T23:52:13.418Z,98326.94
2023-04-16T23:54:40.843Z,98321.91
2023-04-16T23:57:07.786Z,98318.28
2023-04-16T23:59:35.019Z,98321.34
